sensor_id;sensor_type;location;lat;lon;timestamp;temperature;humidity
12166;DHT22;6146;48.128;11.476;2023-05-10T00:00:36;13.70;99.90
12166;DHT22;6146;48.128;11.476;2023-05-10T00:03:02;13.70;99.90
12166;DHT22;6146;48.128;11.476;2023-05-10T00:05:30;13.70;99.90
12166;DHT22;6146;48.128;11.476;2023-05-10T00:07:55;13.60;99.90
12166;DHT22;6146;48.128;11.476;2023-05-10T00:10:21;13.70;99.90
12166;DHT22;6146;48.128;11.476;2023-05-10T00:12:47;13.70;99.90
12166;DHT22;6146;48.128;11.476;2023-05-10T00:15:12;13.70;99.90
12166;DHT22;6146;48.128;11.476;2023-05-10T00:17:38;13.70;99.90
12166;DHT22;6146;48.128;11.476;2023-05-10T00:20:05;13.60;99.90
12166;DHT22;6146;48.128;11.476;2023-05-10T00:22:31;13.60;99.90
12166;DHT22;6146;48.128;11.476;2023-05-10T00:24:57;13.60;99.90
12166;DHT22;6146;48.128;11.476;2023-05-10T00:27:23;13.60;99.90
12166;DHT22;6146;48.128;11.476;2023-05-10T00:29:49;13.60;99.90
12166;DHT22;6146;48.128;11.476;2023-05-10T00:32:14;13.60;99.90
12166;DHT22;6146;48.128;11.476;2023-05-10T00:34:40;13.50;99.90
12166;DHT22;6146;48.128;11.476;2023-05-10T00:37:06;13.50;99.90
12166;DHT22;6146;48.128;11.476;2023-05-10T00:39:31;13.50;99.90
12166;DHT22;6146;48.128;11.476;2023-05-10T00:41:57;13.50;99.90
12166;DHT22;6146;48.128;11.476;2023-05-10T00:44:22;13.50;99.90
12166;DHT22;6146;48.128;11.476;2023-05-10T00:46:48;13.50;99.90
12166;DHT22;6146;48.128;11.476;2023-05-10T00:49:15;13.50;99.90
12166;DHT22;6146;48.128;11.476;2023-05-10T00:51:41;13.50;99.90
12166;DHT22;6146;48.128;11.476;2023-05-10T00:54:09;13.40;99.90
12166;DHT22;6146;48.128;11.476;2023-05-10T00:56:36;13.50;99.90
12166;DHT22;6146;48.128;11.476;2023-05-10T00:59:02;13.40;99.90
12166;DHT22;6146;48.128;11.476;2023-05-10T01:01:28;13.40;99.90
12166;DHT22;6146;48.128;11.476;2023-05-10T01:03:55;13.40;99.90
12166;DHT22;6146;48.128;11.476;2023-05-10T01:06:21;13.40;99.90
12166;DHT22;6146;48.128;11.476;2023-05-10T01:08:46;13.40;99.90
12166;DHT22;6146;48.128;11.476;2023-05-10T01:11:13;13.40;99.90
12166;DHT22;6146;48.128;11.476;2023-05-10T01:13:40;13.40;99.90
12166;DHT22;6146;48.128;11.476;2023-05-10T01:16:06;13.40;99.90
12166;DHT22;6146;48.128;11.476;2023-05-10T01:18:38;13.40;99.90
12166;DHT22;6146;48.128;11.476;2023-05-10T01:21:23;13.40;99.90
12166;DHT22;6146;48.128;11.476;2023-05-10T01:24:23;13.40;99.90
12166;DHT22;6146;48.128;11.476;2023-05-10T01:32:59;13.30;99.90
12166;DHT22;6146;48.128;11.476;2023-05-10T01:35:46;13.30;99.90
12166;DHT22;6146;48.128;11.476;2023-05-10T01:38:22;13.30;99.90
12166;DHT22;6146;48.128;11.476;2023-05-10T01:43:32;13.30;99.90
12166;DHT22;6146;48.128;11.476;2023-05-10T01:46:09;13.30;99.90
12166;DHT22;6146;48.128;11.476;2023-05-10T01:48:47;13.30;99.90
12166;DHT22;6146;48.128;11.476;2023-05-10T01:51:21;13.40;99.90
12166;DHT22;6146;48.128;11.476;2023-05-10T01:53:48;13.20;99.90
12166;DHT22;6146;48.128;11.476;2023-05-10T01:56:15;13.20;99.90
12166;DHT22;6146;48.128;11.476;2023-05-10T01:58:43;13.30;99.90
12166;DHT22;6146;48.128;11.476;2023-05-10T02:01:12;13.20;99.90
12166;DHT22;6146;48.128;11.476;2023-05-10T02:03:38;13.20;99.90
12166;DHT22;6146;48.128;11.476;2023-05-10T02:06:06;13.30;99.90
12166;DHT22;6146;48.128;11.476;2023-05-10T02:08:33;13.20;99.90
12166;DHT22;6146;48.128;11.476;2023-05-10T02:11:01;13.20;99.90
12166;DHT22;6146;48.128;11.476;2023-05-10T02:13:27;13.20;99.90
12166;DHT22;6146;48.128;11.476;2023-05-10T02:15:55;13.20;99.90
12166;DHT22;6146;48.128;11.476;2023-05-10T02:18:24;13.20;99.90
12166;DHT22;6146;48.128;11.476;2023-05-10T02:20:52;13.20;99.90
12166;DHT22;6146;48.128;11.476;2023-05-10T02:23:20;13.20;99.90
12166;DHT22;6146;48.128;11.476;2023-05-10T02:25:48;13.20;99.90
12166;DHT22;6146;48.128;11.476;2023-05-10T02:28:14;13.20;99.90
12166;DHT22;6146;48.128;11.476;2023-05-10T02:30:41;13.20;99.90
12166;DHT22;6146;48.128;11.476;2023-05-10T02:33:08;13.20;99.90
12166;DHT22;6146;48.128;11.476;2023-05-10T02:35:34;13.20;99.90
12166;DHT22;6146;48.128;11.476;2023-05-10T02:38:00;13.10;99.90
12166;DHT22;6146;48.128;11.476;2023-05-10T02:40:27;13.10;99.90
12166;DHT22;6146;48.128;11.476;2023-05-10T02:42:55;13.10;99.90
12166;DHT22;6146;48.128;11.476;2023-05-10T02:45:24;13.10;99.90
12166;DHT22;6146;48.128;11.476;2023-05-10T02:47:51;13.10;99.90
12166;DHT22;6146;48.128;11.476;2023-05-10T02:50:18;13.10;99.90
12166;DHT22;6146;48.128;11.476;2023-05-10T02:52:49;13.10;99.90
12166;DHT22;6146;48.128;11.476;2023-05-10T02:55:19;13.10;99.90
12166;DHT22;6146;48.128;11.476;2023-05-10T02:57:51;13.00;99.90
12166;DHT22;6146;48.128;11.476;2023-05-10T03:00:17;13.00;99.90
12166;DHT22;6146;48.128;11.476;2023-05-10T03:02:43;13.00;99.90
12166;DHT22;6146;48.128;11.476;2023-05-10T03:05:09;13.10;99.90
12166;DHT22;6146;48.128;11.476;2023-05-10T03:07:34;13.10;99.90
12166;DHT22;6146;48.128;11.476;2023-05-10T03:10:00;13.10;99.90
12166;DHT22;6146;48.128;11.476;2023-05-10T03:18:10;13.10;99.90
12166;DHT22;6146;48.128;11.476;2023-05-10T03:20:55;13.10;99.90
12166;DHT22;6146;48.128;11.476;2023-05-10T03:23:27;13.00;99.90
12166;DHT22;6146;48.128;11.476;2023-05-10T03:25:55;13.00;99.90
12166;DHT22;6146;48.128;11.476;2023-05-10T03:28:22;13.00;99.90
12166;DHT22;6146;48.128;11.476;2023-05-10T03:30:52;13.00;99.90
12166;DHT22;6146;48.128;11.476;2023-05-10T03:33:18;13.00;99.90
12166;DHT22;6146;48.128;11.476;2023-05-10T03:35:43;13.00;99.90
12166;DHT22;6146;48.128;11.476;2023-05-10T03:38:11;13.00;99.90
12166;DHT22;6146;48.128;11.476;2023-05-10T03:40:37;13.00;99.90
12166;DHT22;6146;48.128;11.476;2023-05-10T03:43:02;13.00;99.90
12166;DHT22;6146;48.128;11.476;2023-05-10T03:45:28;12.90;99.90
12166;DHT22;6146;48.128;11.476;2023-05-10T03:47:54;13.00;99.90
12166;DHT22;6146;48.128;11.476;2023-05-10T03:50:20;13.00;99.90
12166;DHT22;6146;48.128;11.476;2023-05-10T03:52:46;13.00;99.90
12166;DHT22;6146;48.128;11.476;2023-05-10T03:55:11;13.00;99.90
12166;DHT22;6146;48.128;11.476;2023-05-10T03:57:37;13.00;99.90
12166;DHT22;6146;48.128;11.476;2023-05-10T04:00:03;12.90;99.90
12166;DHT22;6146;48.128;11.476;2023-05-10T04:02:29;13.00;99.90
12166;DHT22;6146;48.128;11.476;2023-05-10T04:04:55;13.00;99.90
12166;DHT22;6146;48.128;11.476;2023-05-10T04:07:21;13.00;99.90
12166;DHT22;6146;48.128;11.476;2023-05-10T04:09:47;13.10;99.90
12166;DHT22;6146;48.128;11.476;2023-05-10T04:12:12;13.00;99.90
12166;DHT22;6146;48.128;11.476;2023-05-10T04:14:38;13.00;99.90
12166;DHT22;6146;48.128;11.476;2023-05-10T04:17:04;13.10;99.90
12166;DHT22;6146;48.128;11.476;2023-05-10T04:19:32;13.00;99.90
12166;DHT22;6146;48.128;11.476;2023-05-10T04:21:58;13.00;99.90
12166;DHT22;6146;48.128;11.476;2023-05-10T04:24:24;13.00;99.90
12166;DHT22;6146;48.128;11.476;2023-05-10T04:26:50;13.00;99.90
12166;DHT22;6146;48.128;11.476;2023-05-10T04:29:16;13.10;99.90
12166;DHT22;6146;48.128;11.476;2023-05-10T04:31:41;13.10;99.90
12166;DHT22;6146;48.128;11.476;2023-05-10T04:34:07;13.10;99.90
12166;DHT22;6146;48.128;11.476;2023-05-10T04:36:32;13.10;99.90
12166;DHT22;6146;48.128;11.476;2023-05-10T04:39:01;13.10;99.90
12166;DHT22;6146;48.128;11.476;2023-05-10T04:41:29;13.20;99.90
12166;DHT22;6146;48.128;11.476;2023-05-10T04:43:55;13.20;99.90
12166;DHT22;6146;48.128;11.476;2023-05-10T04:46:20;13.20;99.90
12166;DHT22;6146;48.128;11.476;2023-05-10T04:48:46;13.10;99.90
12166;DHT22;6146;48.128;11.476;2023-05-10T04:51:11;12.90;99.90
12166;DHT22;6146;48.128;11.476;2023-05-10T04:53:37;12.80;99.90
12166;DHT22;6146;48.128;11.476;2023-05-10T04:56:03;12.80;99.90
12166;DHT22;6146;48.128;11.476;2023-05-10T04:58:29;12.80;99.90
12166;DHT22;6146;48.128;11.476;2023-05-10T05:00:54;12.80;99.90
12166;DHT22;6146;48.128;11.476;2023-05-10T05:03:20;12.80;99.90
12166;DHT22;6146;48.128;11.476;2023-05-10T05:05:45;12.80;99.90
12166;DHT22;6146;48.128;11.476;2023-05-10T05:08:11;12.80;99.90
12166;DHT22;6146;48.128;11.476;2023-05-10T05:10:37;12.80;99.90
12166;DHT22;6146;48.128;11.476;2023-05-10T05:13:02;12.80;99.90
12166;DHT22;6146;48.128;11.476;2023-05-10T05:15:28;12.80;99.90
12166;DHT22;6146;48.128;11.476;2023-05-10T05:17:53;12.80;99.90
12166;DHT22;6146;48.128;11.476;2023-05-10T05:20:19;12.70;99.90
12166;DHT22;6146;48.128;11.476;2023-05-10T05:22:45;12.70;99.90
12166;DHT22;6146;48.128;11.476;2023-05-10T05:25:10;12.60;99.90
12166;DHT22;6146;48.128;11.476;2023-05-10T05:27:37;12.60;99.90
12166;DHT22;6146;48.128;11.476;2023-05-10T05:30:03;12.60;99.90
12166;DHT22;6146;48.128;11.476;2023-05-10T05:32:29;12.60;99.90
12166;DHT22;6146;48.128;11.476;2023-05-10T05:34:55;12.60;99.90
12166;DHT22;6146;48.128;11.476;2023-05-10T05:37:21;12.40;99.90
12166;DHT22;6146;48.128;11.476;2023-05-10T05:39:48;12.30;99.90
12166;DHT22;6146;48.128;11.476;2023-05-10T05:42:14;12.10;99.90
12166;DHT22;6146;48.128;11.476;2023-05-10T05:44:41;12.10;99.90
12166;DHT22;6146;48.128;11.476;2023-05-10T05:47:06;12.20;99.90
12166;DHT22;6146;48.128;11.476;2023-05-10T05:49:32;12.20;99.90
12166;DHT22;6146;48.128;11.476;2023-05-10T05:51:59;12.20;99.90
12166;DHT22;6146;48.128;11.476;2023-05-10T05:54:25;12.20;99.90
12166;DHT22;6146;48.128;11.476;2023-05-10T05:56:56;12.40;99.90
12166;DHT22;6146;48.128;11.476;2023-05-10T05:59:22;12.40;99.90
12166;DHT22;6146;48.128;11.476;2023-05-10T06:01:48;12.50;99.90
12166;DHT22;6146;48.128;11.476;2023-05-10T06:04:14;12.60;99.90
12166;DHT22;6146;48.128;11.476;2023-05-10T06:06:40;12.80;99.90
12166;DHT22;6146;48.128;11.476;2023-05-10T06:09:05;12.80;99.90
12166;DHT22;6146;48.128;11.476;2023-05-10T06:11:31;12.80;99.90
12166;DHT22;6146;48.128;11.476;2023-05-10T06:14:00;12.90;99.90
12166;DHT22;6146;48.128;11.476;2023-05-10T06:16:26;13.00;99.90
12166;DHT22;6146;48.128;11.476;2023-05-10T06:18:52;13.00;99.90
12166;DHT22;6146;48.128;11.476;2023-05-10T06:21:17;13.10;99.90
12166;DHT22;6146;48.128;11.476;2023-05-10T06:23:43;13.30;99.90
12166;DHT22;6146;48.128;11.476;2023-05-10T06:26:09;13.40;99.90
12166;DHT22;6146;48.128;11.476;2023-05-10T06:28:35;13.50;99.90
12166;DHT22;6146;48.128;11.476;2023-05-10T06:31:03;13.60;99.90
12166;DHT22;6146;48.128;11.476;2023-05-10T06:33:28;13.80;99.90
12166;DHT22;6146;48.128;11.476;2023-05-10T06:35:54;13.90;99.90
12166;DHT22;6146;48.128;11.476;2023-05-10T06:38:19;14.00;99.90
12166;DHT22;6146;48.128;11.476;2023-05-10T06:40:45;14.20;99.90
12166;DHT22;6146;48.128;11.476;2023-05-10T06:43:11;14.50;99.90
12166;DHT22;6146;48.128;11.476;2023-05-10T06:45:36;14.60;99.90
12166;DHT22;6146;48.128;11.476;2023-05-10T06:48:02;14.60;99.90
12166;DHT22;6146;48.128;11.476;2023-05-10T06:50:27;14.80;99.90
12166;DHT22;6146;48.128;11.476;2023-05-10T06:52:53;15.00;99.90
12166;DHT22;6146;48.128;11.476;2023-05-10T06:55:19;15.10;99.90
12166;DHT22;6146;48.128;11.476;2023-05-10T06:57:45;15.20;99.90
12166;DHT22;6146;48.128;11.476;2023-05-10T07:00:10;15.10;99.90
12166;DHT22;6146;48.128;11.476;2023-05-10T07:02:36;15.20;99.90
12166;DHT22;6146;48.128;11.476;2023-05-10T07:05:02;15.30;99.90
12166;DHT22;6146;48.128;11.476;2023-05-10T07:07:27;15.50;99.90
12166;DHT22;6146;48.128;11.476;2023-05-10T07:09:54;15.50;99.90
12166;DHT22;6146;48.128;11.476;2023-05-10T07:12:20;15.80;99.90
12166;DHT22;6146;48.128;11.476;2023-05-10T07:14:45;16.30;99.90
12166;DHT22;6146;48.128;11.476;2023-05-10T07:17:11;16.90;99.90
12166;DHT22;6146;48.128;11.476;2023-05-10T07:19:37;17.10;99.90
12166;DHT22;6146;48.128;11.476;2023-05-10T07:22:02;17.10;99.90
12166;DHT22;6146;48.128;11.476;2023-05-10T07:24:28;17.20;99.90
12166;DHT22;6146;48.128;11.476;2023-05-10T07:26:54;17.30;99.90
12166;DHT22;6146;48.128;11.476;2023-05-10T07:29:19;17.10;99.90
12166;DHT22;6146;48.128;11.476;2023-05-10T07:31:45;17.10;99.90
12166;DHT22;6146;48.128;11.476;2023-05-10T07:34:10;17.00;99.90
12166;DHT22;6146;48.128;11.476;2023-05-10T07:36:36;16.90;99.90
12166;DHT22;6146;48.128;11.476;2023-05-10T07:39:02;17.00;99.90
12166;DHT22;6146;48.128;11.476;2023-05-10T07:41:27;17.30;99.90
12166;DHT22;6146;48.128;11.476;2023-05-10T07:43:53;17.40;99.90
12166;DHT22;6146;48.128;11.476;2023-05-10T07:46:18;17.70;99.90
12166;DHT22;6146;48.128;11.476;2023-05-10T07:48:45;17.80;99.90
12166;DHT22;6146;48.128;11.476;2023-05-10T07:51:10;17.70;99.90
12166;DHT22;6146;48.128;11.476;2023-05-10T07:53:37;18.00;99.90
12166;DHT22;6146;48.128;11.476;2023-05-10T07:56:26;18.00;99.90
12166;DHT22;6146;48.128;11.476;2023-05-10T07:58:55;18.00;99.90
12166;DHT22;6146;48.128;11.476;2023-05-10T08:01:21;17.80;99.90
12166;DHT22;6146;48.128;11.476;2023-05-10T08:03:47;17.40;99.90
12166;DHT22;6146;48.128;11.476;2023-05-10T08:06:13;17.20;99.90
12166;DHT22;6146;48.128;11.476;2023-05-10T08:08:39;17.10;99.90
12166;DHT22;6146;48.128;11.476;2023-05-10T08:11:05;17.10;99.90
12166;DHT22;6146;48.128;11.476;2023-05-10T08:13:30;17.20;99.90
12166;DHT22;6146;48.128;11.476;2023-05-10T08:15:56;17.10;99.90
12166;DHT22;6146;48.128;11.476;2023-05-10T08:18:22;17.10;99.90
12166;DHT22;6146;48.128;11.476;2023-05-10T08:20:48;18.40;99.90
12166;DHT22;6146;48.128;11.476;2023-05-10T08:23:13;16.90;99.90
12166;DHT22;6146;48.128;11.476;2023-05-10T08:25:39;16.80;99.90
12166;DHT22;6146;48.128;11.476;2023-05-10T08:28:05;16.50;99.90
12166;DHT22;6146;48.128;11.476;2023-05-10T08:30:30;16.20;99.90
12166;DHT22;6146;48.128;11.476;2023-05-10T08:32:56;16.00;99.90
12166;DHT22;6146;48.128;11.476;2023-05-10T08:35:22;16.10;99.90
12166;DHT22;6146;48.128;11.476;2023-05-10T08:37:47;16.30;99.90
12166;DHT22;6146;48.128;11.476;2023-05-10T08:40:13;16.80;99.90
12166;DHT22;6146;48.128;11.476;2023-05-10T08:42:41;17.10;99.90
12166;DHT22;6146;48.128;11.476;2023-05-10T08:45:10;17.10;99.90
12166;DHT22;6146;48.128;11.476;2023-05-10T08:47:36;16.80;99.90
12166;DHT22;6146;48.128;11.476;2023-05-10T08:50:03;16.60;99.90
12166;DHT22;6146;48.128;11.476;2023-05-10T08:52:30;16.50;99.90
12166;DHT22;6146;48.128;11.476;2023-05-10T08:54:56;16.60;99.90
12166;DHT22;6146;48.128;11.476;2023-05-10T08:57:22;16.80;99.90
12166;DHT22;6146;48.128;11.476;2023-05-10T08:59:47;18.10;99.90
12166;DHT22;6146;48.128;11.476;2023-05-10T09:02:13;19.40;99.90
12166;DHT22;6146;48.128;11.476;2023-05-10T09:04:39;19.60;99.90
12166;DHT22;6146;48.128;11.476;2023-05-10T09:07:06;19.90;99.90
12166;DHT22;6146;48.128;11.476;2023-05-10T09:09:33;18.90;99.90
12166;DHT22;6146;48.128;11.476;2023-05-10T09:11:59;18.00;99.90
12166;DHT22;6146;48.128;11.476;2023-05-10T09:14:25;17.30;99.90
12166;DHT22;6146;48.128;11.476;2023-05-10T09:16:51;17.00;99.90
12166;DHT22;6146;48.128;11.476;2023-05-10T09:19:17;16.80;99.90
12166;DHT22;6146;48.128;11.476;2023-05-10T09:21:43;16.70;99.90
12166;DHT22;6146;48.128;11.476;2023-05-10T09:24:09;16.80;99.90
12166;DHT22;6146;48.128;11.476;2023-05-10T09:26:35;16.60;99.90
12166;DHT22;6146;48.128;11.476;2023-05-10T09:29:01;16.70;99.90
12166;DHT22;6146;48.128;11.476;2023-05-10T09:34:16;17.10;99.90
12166;DHT22;6146;48.128;11.476;2023-05-10T09:36:51;17.00;99.90
12166;DHT22;6146;48.128;11.476;2023-05-10T09:39:16;17.00;99.90
12166;DHT22;6146;48.128;11.476;2023-05-10T09:41:43;17.20;99.90
12166;DHT22;6146;48.128;11.476;2023-05-10T09:44:09;17.50;99.90
12166;DHT22;6146;48.128;11.476;2023-05-10T09:46:35;17.50;99.90
12166;DHT22;6146;48.128;11.476;2023-05-10T09:49:01;17.70;99.90
12166;DHT22;6146;48.128;11.476;2023-05-10T09:51:26;16.90;99.90
12166;DHT22;6146;48.128;11.476;2023-05-10T09:54:13;18.60;99.90
12166;DHT22;6146;48.128;11.476;2023-05-10T09:56:38;20.10;99.90
12166;DHT22;6146;48.128;11.476;2023-05-10T09:59:07;21.80;99.90
12166;DHT22;6146;48.128;11.476;2023-05-10T10:01:37;22.60;99.90
12166;DHT22;6146;48.128;11.476;2023-05-10T10:04:07;22.60;99.90
12166;DHT22;6146;48.128;11.476;2023-05-10T10:06:39;22.00;99.90
12166;DHT22;6146;48.128;11.476;2023-05-10T10:09:09;21.60;99.90
12166;DHT22;6146;48.128;11.476;2023-05-10T10:11:36;20.80;99.90
12166;DHT22;6146;48.128;11.476;2023-05-10T10:14:02;20.40;99.90
12166;DHT22;6146;48.128;11.476;2023-05-10T10:16:31;20.30;99.90
12166;DHT22;6146;48.128;11.476;2023-05-10T10:18:57;20.60;99.90
12166;DHT22;6146;48.128;11.476;2023-05-10T10:21:23;20.90;99.90
12166;DHT22;6146;48.128;11.476;2023-05-10T10:23:49;22.00;99.90
12166;DHT22;6146;48.128;11.476;2023-05-10T10:26:17;22.90;99.90
12166;DHT22;6146;48.128;11.476;2023-05-10T10:31:34;24.60;99.90
12166;DHT22;6146;48.128;11.476;2023-05-10T10:34:38;24.50;98.50
12166;DHT22;6146;48.128;11.476;2023-05-10T10:36:57;25.00;98.50
12166;DHT22;6146;48.128;11.476;2023-05-10T10:39:24;24.30;96.80
12166;DHT22;6146;48.128;11.476;2023-05-10T10:41:52;23.50;98.00
12166;DHT22;6146;48.128;11.476;2023-05-10T10:44:26;22.60;98.20
12166;DHT22;6146;48.128;11.476;2023-05-10T10:52:15;20.50;99.90
12166;DHT22;6146;48.128;11.476;2023-05-10T10:55:05;19.50;99.90
12166;DHT22;6146;48.128;11.476;2023-05-10T10:57:54;18.70;99.90
12166;DHT22;6146;48.128;11.476;2023-05-10T11:02:58;17.40;99.90
12166;DHT22;6146;48.128;11.476;2023-05-10T11:05:34;17.20;99.90
12166;DHT22;6146;48.128;11.476;2023-05-10T11:10:35;16.70;99.90
12166;DHT22;6146;48.128;11.476;2023-05-10T11:13:02;16.50;99.90
12166;DHT22;6146;48.128;11.476;2023-05-10T11:15:34;16.40;99.90
12166;DHT22;6146;48.128;11.476;2023-05-10T11:18:00;16.30;99.90
12166;DHT22;6146;48.128;11.476;2023-05-10T11:20:41;16.10;99.90
12166;DHT22;6146;48.128;11.476;2023-05-10T11:23:13;16.10;99.90
12166;DHT22;6146;48.128;11.476;2023-05-10T11:25:44;15.80;99.90
12166;DHT22;6146;48.128;11.476;2023-05-10T11:28:11;15.40;99.90
12166;DHT22;6146;48.128;11.476;2023-05-10T11:30:42;15.10;99.90
12166;DHT22;6146;48.128;11.476;2023-05-10T11:33:14;14.60;99.90
12166;DHT22;6146;48.128;11.476;2023-05-10T11:35:40;14.30;99.90
12166;DHT22;6146;48.128;11.476;2023-05-10T11:38:07;13.90;99.90
12166;DHT22;6146;48.128;11.476;2023-05-10T11:40:36;13.70;99.90
12166;DHT22;6146;48.128;11.476;2023-05-10T11:43:03;13.70;99.90
12166;DHT22;6146;48.128;11.476;2023-05-10T11:45:32;13.60;99.90
12166;DHT22;6146;48.128;11.476;2023-05-10T11:47:58;13.50;99.90
12166;DHT22;6146;48.128;11.476;2023-05-10T11:50:24;13.30;99.90
12166;DHT22;6146;48.128;11.476;2023-05-10T11:52:55;13.40;99.90
12166;DHT22;6146;48.128;11.476;2023-05-10T11:55:21;13.30;99.90
12166;DHT22;6146;48.128;11.476;2023-05-10T11:57:47;13.20;99.90
12166;DHT22;6146;48.128;11.476;2023-05-10T12:00:13;13.20;99.90
12166;DHT22;6146;48.128;11.476;2023-05-10T12:02:39;13.10;99.90
12166;DHT22;6146;48.128;11.476;2023-05-10T12:05:05;13.20;99.90
12166;DHT22;6146;48.128;11.476;2023-05-10T12:07:31;13.20;99.90
12166;DHT22;6146;48.128;11.476;2023-05-10T12:15:04;13.30;99.90
12166;DHT22;6146;48.128;11.476;2023-05-10T12:17:30;13.20;99.90
12166;DHT22;6146;48.128;11.476;2023-05-10T12:20:12;13.40;99.90
12166;DHT22;6146;48.128;11.476;2023-05-10T12:22:39;13.60;99.90
12166;DHT22;6146;48.128;11.476;2023-05-10T12:25:04;13.60;99.90
12166;DHT22;6146;48.128;11.476;2023-05-10T12:27:33;13.50;99.90
12166;DHT22;6146;48.128;11.476;2023-05-10T12:29:59;13.50;99.90
12166;DHT22;6146;48.128;11.476;2023-05-10T12:32:44;13.60;99.90
12166;DHT22;6146;48.128;11.476;2023-05-10T12:35:09;13.50;99.90
12166;DHT22;6146;48.128;11.476;2023-05-10T12:37:35;13.60;99.90
12166;DHT22;6146;48.128;11.476;2023-05-10T12:40:06;13.70;99.90
12166;DHT22;6146;48.128;11.476;2023-05-10T12:42:33;13.90;99.90
12166;DHT22;6146;48.128;11.476;2023-05-10T12:44:59;14.10;99.90
12166;DHT22;6146;48.128;11.476;2023-05-10T12:47:25;14.10;99.90
12166;DHT22;6146;48.128;11.476;2023-05-10T12:49:50;14.20;99.90
12166;DHT22;6146;48.128;11.476;2023-05-10T12:52:16;14.30;99.90
12166;DHT22;6146;48.128;11.476;2023-05-10T12:54:42;14.40;99.90
12166;DHT22;6146;48.128;11.476;2023-05-10T12:57:07;14.50;99.90
12166;DHT22;6146;48.128;11.476;2023-05-10T12:59:33;14.30;99.90
12166;DHT22;6146;48.128;11.476;2023-05-10T13:01:58;14.30;99.90
12166;DHT22;6146;48.128;11.476;2023-05-10T13:04:24;14.50;99.90
12166;DHT22;6146;48.128;11.476;2023-05-10T13:06:50;14.40;99.90
12166;DHT22;6146;48.128;11.476;2023-05-10T13:09:15;14.50;99.90
12166;DHT22;6146;48.128;11.476;2023-05-10T13:11:41;14.60;99.90
12166;DHT22;6146;48.128;11.476;2023-05-10T13:14:06;14.60;99.90
12166;DHT22;6146;48.128;11.476;2023-05-10T13:16:32;14.50;99.90
12166;DHT22;6146;48.128;11.476;2023-05-10T13:18:58;14.60;99.90
12166;DHT22;6146;48.128;11.476;2023-05-10T13:21:24;14.50;99.90
12166;DHT22;6146;48.128;11.476;2023-05-10T13:23:50;14.50;99.90
12166;DHT22;6146;48.128;11.476;2023-05-10T13:26:16;14.50;99.90
12166;DHT22;6146;48.128;11.476;2023-05-10T13:28:41;14.40;99.90
12166;DHT22;6146;48.128;11.476;2023-05-10T13:31:07;14.30;99.90
12166;DHT22;6146;48.128;11.476;2023-05-10T13:33:33;14.10;99.90
12166;DHT22;6146;48.128;11.476;2023-05-10T13:35:58;14.00;99.90
12166;DHT22;6146;48.128;11.476;2023-05-10T13:38:24;14.00;99.90
12166;DHT22;6146;48.128;11.476;2023-05-10T13:40:49;14.00;99.90
12166;DHT22;6146;48.128;11.476;2023-05-10T13:43:18;14.00;99.90
12166;DHT22;6146;48.128;11.476;2023-05-10T13:45:43;13.90;99.90
12166;DHT22;6146;48.128;11.476;2023-05-10T13:48:09;13.90;99.90
12166;DHT22;6146;48.128;11.476;2023-05-10T13:50:35;13.90;99.90
12166;DHT22;6146;48.128;11.476;2023-05-10T13:53:00;14.00;99.90
12166;DHT22;6146;48.128;11.476;2023-05-10T13:55:26;13.80;99.90
12166;DHT22;6146;48.128;11.476;2023-05-10T13:57:51;13.80;99.90
12166;DHT22;6146;48.128;11.476;2023-05-10T14:00:17;13.90;99.90
12166;DHT22;6146;48.128;11.476;2023-05-10T14:02:43;13.90;99.90
12166;DHT22;6146;48.128;11.476;2023-05-10T14:05:08;14.00;99.90
12166;DHT22;6146;48.128;11.476;2023-05-10T14:07:34;13.90;99.90
12166;DHT22;6146;48.128;11.476;2023-05-10T14:10:00;13.90;99.90
12166;DHT22;6146;48.128;11.476;2023-05-10T14:12:25;13.90;99.90
12166;DHT22;6146;48.128;11.476;2023-05-10T14:14:51;13.90;99.90
12166;DHT22;6146;48.128;11.476;2023-05-10T14:17:17;14.00;99.90
12166;DHT22;6146;48.128;11.476;2023-05-10T14:19:43;14.10;99.90
12166;DHT22;6146;48.128;11.476;2023-05-10T14:22:08;14.20;99.90
12166;DHT22;6146;48.128;11.476;2023-05-10T14:24:34;14.20;99.90
12166;DHT22;6146;48.128;11.476;2023-05-10T14:26:59;14.00;99.90
12166;DHT22;6146;48.128;11.476;2023-05-10T14:29:25;13.80;99.90
12166;DHT22;6146;48.128;11.476;2023-05-10T14:31:51;14.00;99.90
12166;DHT22;6146;48.128;11.476;2023-05-10T14:34:17;14.00;99.90
12166;DHT22;6146;48.128;11.476;2023-05-10T14:36:42;14.10;99.90
12166;DHT22;6146;48.128;11.476;2023-05-10T14:39:08;14.10;99.90
12166;DHT22;6146;48.128;11.476;2023-05-10T14:41:35;14.00;99.90
12166;DHT22;6146;48.128;11.476;2023-05-10T14:44:00;14.00;99.90
12166;DHT22;6146;48.128;11.476;2023-05-10T14:46:28;13.90;99.90
12166;DHT22;6146;48.128;11.476;2023-05-10T14:48:55;13.90;99.90
12166;DHT22;6146;48.128;11.476;2023-05-10T14:51:20;13.70;99.90
12166;DHT22;6146;48.128;11.476;2023-05-10T14:53:47;13.60;99.90
12166;DHT22;6146;48.128;11.476;2023-05-10T14:56:13;13.50;99.90
12166;DHT22;6146;48.128;11.476;2023-05-10T14:58:39;13.50;99.90
12166;DHT22;6146;48.128;11.476;2023-05-10T15:01:04;13.50;99.90
12166;DHT22;6146;48.128;11.476;2023-05-10T15:03:30;13.30;99.90
12166;DHT22;6146;48.128;11.476;2023-05-10T15:05:56;13.30;99.90
12166;DHT22;6146;48.128;11.476;2023-05-10T15:08:23;13.30;99.90
12166;DHT22;6146;48.128;11.476;2023-05-10T15:10:50;13.30;99.90
12166;DHT22;6146;48.128;11.476;2023-05-10T15:13:16;13.40;99.90
12166;DHT22;6146;48.128;11.476;2023-05-10T15:15:41;13.30;99.90
12166;DHT22;6146;48.128;11.476;2023-05-10T15:18:08;13.20;99.90
12166;DHT22;6146;48.128;11.476;2023-05-10T15:20:33;13.20;99.90
12166;DHT22;6146;48.128;11.476;2023-05-10T15:23:00;13.30;99.90
12166;DHT22;6146;48.128;11.476;2023-05-10T15:25:26;13.20;99.90
12166;DHT22;6146;48.128;11.476;2023-05-10T15:27:52;13.10;99.90
12166;DHT22;6146;48.128;11.476;2023-05-10T15:30:18;13.00;99.90
12166;DHT22;6146;48.128;11.476;2023-05-10T15:32:44;12.90;99.90
12166;DHT22;6146;48.128;11.476;2023-05-10T15:35:09;13.00;99.90
12166;DHT22;6146;48.128;11.476;2023-05-10T15:37:35;13.00;99.90
12166;DHT22;6146;48.128;11.476;2023-05-10T15:40:01;13.00;99.90
12166;DHT22;6146;48.128;11.476;2023-05-10T15:42:30;12.90;99.90
12166;DHT22;6146;48.128;11.476;2023-05-10T15:44:57;12.90;99.90
12166;DHT22;6146;48.128;11.476;2023-05-10T15:47:22;12.90;99.90
12166;DHT22;6146;48.128;11.476;2023-05-10T15:49:48;12.90;99.90
12166;DHT22;6146;48.128;11.476;2023-05-10T15:52:14;12.80;99.90
12166;DHT22;6146;48.128;11.476;2023-05-10T15:54:39;12.80;99.90
12166;DHT22;6146;48.128;11.476;2023-05-10T15:57:05;12.70;99.90
12166;DHT22;6146;48.128;11.476;2023-05-10T15:59:31;12.70;99.90
12166;DHT22;6146;48.128;11.476;2023-05-10T16:01:57;12.60;99.90
12166;DHT22;6146;48.128;11.476;2023-05-10T16:04:22;12.50;99.90